sensor_id;sensor_type;location;lat;lon;timestamp;P1;durP1;ratioP1;P2;durP2;ratioP2
18360;SDS011;9308;48.550;9.108;2023-08-06T00:02:02;6.77;;;6.17;;
18360;SDS011;9308;48.550;9.108;2023-08-06T00:04:47;6.37;;;5.87;;
18360;SDS011;9308;48.550;9.108;2023-08-06T00:07:33;6.43;;;5.93;;
18360;SDS011;9308;48.550;9.108;2023-08-06T00:10:18;6.63;;;6.10;;
18360;SDS011;9308;48.550;9.108;2023-08-06T00:13:03;6.17;;;5.57;;
18360;SDS011;9308;48.550;9.108;2023-08-06T00:15:48;5.80;;;5.30;;
18360;SDS011;9308;48.550;9.108;2023-08-06T00:18:34;5.80;;;5.40;;
18360;SDS011;9308;48.550;9.108;2023-08-06T00:21:19;6.50;;;6.00;;
18360;SDS011;9308;48.550;9.108;2023-08-06T00:24:04;5.93;;;5.43;;
18360;SDS011;9308;48.550;9.108;2023-08-06T00:26:50;6.10;;;5.60;;
18360;SDS011;9308;48.550;9.108;2023-08-06T00:29:35;6.37;;;5.87;;
18360;SDS011;9308;48.550;9.108;2023-08-06T00:32:20;6.53;;;5.93;;
18360;SDS011;9308;48.550;9.108;2023-08-06T00:35:06;6.27;;;5.70;;
18360;SDS011;9308;48.550;9.108;2023-08-06T00:37:52;6.70;;;5.97;;
18360;SDS011;9308;48.550;9.108;2023-08-06T00:40:37;6.20;;;5.70;;
18360;SDS011;9308;48.550;9.108;2023-08-06T00:43:22;6.00;;;5.50;;
18360;SDS011;9308;48.550;9.108;2023-08-06T00:46:07;6.30;;;5.73;;
18360;SDS011;9308;48.550;9.108;2023-08-06T00:48:53;6.30;;;5.80;;
18360;SDS011;9308;48.550;9.108;2023-08-06T00:51:39;5.30;;;4.90;;
18360;SDS011;9308;48.550;9.108;2023-08-06T00:54:24;4.97;;;4.57;;
18360;SDS011;9308;48.550;9.108;2023-08-06T00:57:10;5.50;;;5.03;;
18360;SDS011;9308;48.550;9.108;2023-08-06T00:59:56;5.20;;;4.70;;
18360;SDS011;9308;48.550;9.108;2023-08-06T01:02:41;5.23;;;4.60;;
18360;SDS011;9308;48.550;9.108;2023-08-06T01:05:27;5.30;;;4.90;;
18360;SDS011;9308;48.550;9.108;2023-08-06T01:08:35;4.63;;;4.23;;
18360;SDS011;9308;48.550;9.108;2023-08-06T01:14:50;4.07;;;3.73;;
18360;SDS011;9308;48.550;9.108;2023-08-06T01:17:42;5.30;;;3.90;;
18360;SDS011;9308;48.550;9.108;2023-08-06T01:20:28;3.90;;;3.60;;
18360;SDS011;9308;48.550;9.108;2023-08-06T01:23:14;3.80;;;3.50;;
18360;SDS011;9308;48.550;9.108;2023-08-06T01:26:02;4.07;;;3.27;;
18360;SDS011;9308;48.550;9.108;2023-08-06T01:31:57;4.10;;;3.70;;
18360;SDS011;9308;48.550;9.108;2023-08-06T01:34:43;4.57;;;4.17;;
18360;SDS011;9308;48.550;9.108;2023-08-06T01:37:29;4.23;;;3.83;;
18360;SDS011;9308;48.550;9.108;2023-08-06T01:40:15;4.03;;;3.63;;
18360;SDS011;9308;48.550;9.108;2023-08-06T01:43:00;4.20;;;3.80;;
18360;SDS011;9308;48.550;9.108;2023-08-06T01:45:46;3.57;;;3.33;;
18360;SDS011;9308;48.550;9.108;2023-08-06T01:48:31;3.30;;;3.00;;
18360;SDS011;9308;48.550;9.108;2023-08-06T01:51:16;4.07;;;3.50;;
18360;SDS011;9308;48.550;9.108;2023-08-06T01:54:01;3.83;;;3.53;;
18360;SDS011;9308;48.550;9.108;2023-08-06T01:56:47;3.80;;;3.30;;
18360;SDS011;9308;48.550;9.108;2023-08-06T01:59:32;3.80;;;3.50;;
18360;SDS011;9308;48.550;9.108;2023-08-06T02:02:17;3.27;;;3.00;;
18360;SDS011;9308;48.550;9.108;2023-08-06T02:05:03;3.70;;;3.37;;
18360;SDS011;9308;48.550;9.108;2023-08-06T02:07:48;3.30;;;3.00;;
18360;SDS011;9308;48.550;9.108;2023-08-06T02:10:34;3.37;;;3.07;;
18360;SDS011;9308;48.550;9.108;2023-08-06T02:13:19;4.40;;;4.00;;
18360;SDS011;9308;48.550;9.108;2023-08-06T02:16:06;3.60;;;3.30;;
18360;SDS011;9308;48.550;9.108;2023-08-06T02:18:52;3.47;;;3.17;;
18360;SDS011;9308;48.550;9.108;2023-08-06T02:21:37;3.60;;;3.30;;
18360;SDS011;9308;48.550;9.108;2023-08-06T02:24:23;4.87;;;3.40;;
18360;SDS011;9308;48.550;9.108;2023-08-06T02:27:08;5.33;;;3.80;;
18360;SDS011;9308;48.550;9.108;2023-08-06T02:29:53;3.43;;;3.13;;
18360;SDS011;9308;48.550;9.108;2023-08-06T02:32:39;3.20;;;2.90;;
18360;SDS011;9308;48.550;9.108;2023-08-06T02:35:24;4.80;;;3.40;;
18360;SDS011;9308;48.550;9.108;2023-08-06T02:38:09;3.30;;;3.00;;
18360;SDS011;9308;48.550;9.108;2023-08-06T02:40:54;3.83;;;3.40;;
18360;SDS011;9308;48.550;9.108;2023-08-06T02:43:40;3.13;;;2.87;;
18360;SDS011;9308;48.550;9.108;2023-08-06T02:46:25;3.20;;;3.00;;
18360;SDS011;9308;48.550;9.108;2023-08-06T02:49:11;3.60;;;3.03;;
18360;SDS011;9308;48.550;9.108;2023-08-06T02:51:56;3.23;;;2.80;;
18360;SDS011;9308;48.550;9.108;2023-08-06T02:54:42;3.60;;;3.30;;
18360;SDS011;9308;48.550;9.108;2023-08-06T02:57:27;3.80;;;3.00;;
18360;SDS011;9308;48.550;9.108;2023-08-06T03:00:13;3.20;;;2.90;;
18360;SDS011;9308;48.550;9.108;2023-08-06T03:02:58;3.60;;;3.30;;
18360;SDS011;9308;48.550;9.108;2023-08-06T03:05:51;3.57;;;2.93;;
18360;SDS011;9308;48.550;9.108;2023-08-06T03:08:37;3.30;;;3.00;;
18360;SDS011;9308;48.550;9.108;2023-08-06T03:11:22;3.90;;;3.17;;
18360;SDS011;9308;48.550;9.108;2023-08-06T03:14:07;3.07;;;2.87;;
18360;SDS011;9308;48.550;9.108;2023-08-06T03:16:53;3.30;;;3.00;;
18360;SDS011;9308;48.550;9.108;2023-08-06T03:19:38;3.37;;;3.17;;
18360;SDS011;9308;48.550;9.108;2023-08-06T03:22:23;4.10;;;3.53;;
18360;SDS011;9308;48.550;9.108;2023-08-06T03:25:08;4.23;;;3.43;;
18360;SDS011;9308;48.550;9.108;2023-08-06T03:27:54;2.90;;;2.70;;
18360;SDS011;9308;48.550;9.108;2023-08-06T03:30:39;2.90;;;2.70;;
18360;SDS011;9308;48.550;9.108;2023-08-06T03:33:24;3.30;;;3.00;;
18360;SDS011;9308;48.550;9.108;2023-08-06T03:36:10;3.60;;;3.30;;
18360;SDS011;9308;48.550;9.108;2023-08-06T03:38:55;3.57;;;2.50;;
18360;SDS011;9308;48.550;9.108;2023-08-06T03:41:40;2.77;;;2.57;;
18360;SDS011;9308;48.550;9.108;2023-08-06T03:44:25;4.40;;;2.70;;
18360;SDS011;9308;48.550;9.108;2023-08-06T03:47:12;3.83;;;2.80;;
18360;SDS011;9308;48.550;9.108;2023-08-06T03:49:57;2.60;;;2.40;;
18360;SDS011;9308;48.550;9.108;2023-08-06T03:52:42;3.13;;;2.60;;
18360;SDS011;9308;48.550;9.108;2023-08-06T03:55:27;3.00;;;2.70;;
18360;SDS011;9308;48.550;9.108;2023-08-06T03:58:13;3.63;;;2.40;;
18360;SDS011;9308;48.550;9.108;2023-08-06T04:00:59;2.80;;;2.60;;
18360;SDS011;9308;48.550;9.108;2023-08-06T04:03:45;4.13;;;2.87;;
18360;SDS011;9308;48.550;9.108;2023-08-06T04:06:30;3.50;;;3.00;;
18360;SDS011;9308;48.550;9.108;2023-08-06T04:09:15;3.20;;;2.60;;
18360;SDS011;9308;48.550;9.108;2023-08-06T04:12:01;4.20;;;2.53;;
18360;SDS011;9308;48.550;9.108;2023-08-06T04:14:47;4.43;;;3.73;;
18360;SDS011;9308;48.550;9.108;2023-08-06T04:17:33;2.37;;;2.17;;
18360;SDS011;9308;48.550;9.108;2023-08-06T04:20:18;3.50;;;2.60;;
18360;SDS011;9308;48.550;9.108;2023-08-06T04:23:06;4.63;;;1.90;;
18360;SDS011;9308;48.550;9.108;2023-08-06T04:25:51;2.50;;;2.30;;
18360;SDS011;9308;48.550;9.108;2023-08-06T04:28:36;3.83;;;2.20;;
18360;SDS011;9308;48.550;9.108;2023-08-06T04:31:22;2.10;;;1.73;;
18360;SDS011;9308;48.550;9.108;2023-08-06T04:34:08;1.70;;;1.50;;
18360;SDS011;9308;48.550;9.108;2023-08-06T04:36:54;2.37;;;1.40;;
18360;SDS011;9308;48.550;9.108;2023-08-06T04:39:39;1.50;;;1.40;;
18360;SDS011;9308;48.550;9.108;2023-08-06T04:42:24;1.80;;;1.30;;
18360;SDS011;9308;48.550;9.108;2023-08-06T04:45:10;1.53;;;1.40;;
18360;SDS011;9308;48.550;9.108;2023-08-06T04:47:55;1.63;;;1.53;;
18360;SDS011;9308;48.550;9.108;2023-08-06T04:50:47;2.33;;;1.70;;
18360;SDS011;9308;48.550;9.108;2023-08-06T04:53:33;2.20;;;1.70;;
18360;SDS011;9308;48.550;9.108;2023-08-06T04:56:18;2.00;;;1.83;;
18360;SDS011;9308;48.550;9.108;2023-08-06T04:59:04;2.20;;;1.50;;
18360;SDS011;9308;48.550;9.108;2023-08-06T05:01:49;1.90;;;1.43;;
18360;SDS011;9308;48.550;9.108;2023-08-06T05:04:34;1.90;;;1.70;;
18360;SDS011;9308;48.550;9.108;2023-08-06T05:07:19;1.63;;;1.53;;
18360;SDS011;9308;48.550;9.108;2023-08-06T05:10:05;2.10;;;1.60;;
18360;SDS011;9308;48.550;9.108;2023-08-06T05:12:51;1.83;;;1.73;;
18360;SDS011;9308;48.550;9.108;2023-08-06T05:15:36;4.40;;;1.80;;
18360;SDS011;9308;48.550;9.108;2023-08-06T05:18:21;1.60;;;1.40;;
18360;SDS011;9308;48.550;9.108;2023-08-06T05:21:07;3.13;;;1.63;;
18360;SDS011;9308;48.550;9.108;2023-08-06T05:23:52;1.70;;;1.30;;
18360;SDS011;9308;48.550;9.108;2023-08-06T05:26:37;2.30;;;1.37;;
18360;SDS011;9308;48.550;9.108;2023-08-06T05:29:23;1.80;;;1.70;;
18360;SDS011;9308;48.550;9.108;2023-08-06T05:32:08;2.53;;;1.23;;
18360;SDS011;9308;48.550;9.108;2023-08-06T05:34:54;1.97;;;1.50;;
18360;SDS011;9308;48.550;9.108;2023-08-06T05:37:39;1.30;;;1.10;;
18360;SDS011;9308;48.550;9.108;2023-08-06T05:40:24;1.73;;;1.43;;
18360;SDS011;9308;48.550;9.108;2023-08-06T05:43:10;1.47;;;1.33;;
18360;SDS011;9308;48.550;9.108;2023-08-06T05:45:55;3.10;;;2.20;;
18360;SDS011;9308;48.550;9.108;2023-08-06T05:48:41;1.57;;;1.07;;
18360;SDS011;9308;48.550;9.108;2023-08-06T05:51:26;1.67;;;1.17;;
18360;SDS011;9308;48.550;9.108;2023-08-06T05:54:12;1.23;;;1.10;;
18360;SDS011;9308;48.550;9.108;2023-08-06T05:56:57;1.47;;;1.10;;
18360;SDS011;9308;48.550;9.108;2023-08-06T05:59:42;1.80;;;1.20;;
18360;SDS011;9308;48.550;9.108;2023-08-06T06:02:28;4.17;;;1.30;;
18360;SDS011;9308;48.550;9.108;2023-08-06T06:05:13;3.17;;;1.10;;
18360;SDS011;9308;48.550;9.108;2023-08-06T06:07:59;2.03;;;1.20;;
18360;SDS011;9308;48.550;9.108;2023-08-06T06:10:44;1.63;;;1.27;;
18360;SDS011;9308;48.550;9.108;2023-08-06T06:13:29;2.77;;;1.47;;
18360;SDS011;9308;48.550;9.108;2023-08-06T06:16:15;2.50;;;1.20;;
18360;SDS011;9308;48.550;9.108;2023-08-06T06:19:00;1.33;;;1.23;;
18360;SDS011;9308;48.550;9.108;2023-08-06T06:21:45;2.33;;;1.13;;
18360;SDS011;9308;48.550;9.108;2023-08-06T06:24:30;1.40;;;1.30;;
18360;SDS011;9308;48.550;9.108;2023-08-06T06:27:16;1.30;;;1.07;;
18360;SDS011;9308;48.550;9.108;2023-08-06T06:30:01;3.10;;;1.73;;
18360;SDS011;9308;48.550;9.108;2023-08-06T06:32:46;1.10;;;1.00;;
18360;SDS011;9308;48.550;9.108;2023-08-06T06:35:32;2.30;;;1.37;;
18360;SDS011;9308;48.550;9.108;2023-08-06T06:38:17;1.07;;;1.07;;
18360;SDS011;9308;48.550;9.108;2023-08-06T06:41:02;2.13;;;1.30;;
18360;SDS011;9308;48.550;9.108;2023-08-06T06:43:48;0.90;;;0.90;;
18360;SDS011;9308;48.550;9.108;2023-08-06T06:46:33;1.10;;;1.10;;
18360;SDS011;9308;48.550;9.108;2023-08-06T06:49:18;1.30;;;1.20;;
18360;SDS011;9308;48.550;9.108;2023-08-06T06:52:04;1.00;;;1.00;;
18360;SDS011;9308;48.550;9.108;2023-08-06T06:54:50;1.03;;;0.93;;
18360;SDS011;9308;48.550;9.108;2023-08-06T06:57:35;2.10;;;0.93;;
18360;SDS011;9308;48.550;9.108;2023-08-06T07:00:20;1.53;;;1.10;;
18360;SDS011;9308;48.550;9.108;2023-08-06T07:03:05;0.90;;;0.90;;
18360;SDS011;9308;48.550;9.108;2023-08-06T07:05:51;1.30;;;0.90;;
18360;SDS011;9308;48.550;9.108;2023-08-06T07:08:36;1.13;;;0.80;;
18360;SDS011;9308;48.550;9.108;2023-08-06T07:11:21;1.07;;;1.07;;
18360;SDS011;9308;48.550;9.108;2023-08-06T07:14:07;1.27;;;0.87;;
18360;SDS011;9308;48.550;9.108;2023-08-06T07:16:52;1.50;;;0.80;;
18360;SDS011;9308;48.550;9.108;2023-08-06T07:19:38;1.80;;;1.10;;
18360;SDS011;9308;48.550;9.108;2023-08-06T07:22:23;0.80;;;0.80;;
18360;SDS011;9308;48.550;9.108;2023-08-06T07:25:08;0.87;;;0.83;;
18360;SDS011;9308;48.550;9.108;2023-08-06T07:27:54;0.80;;;0.80;;
18360;SDS011;9308;48.550;9.108;2023-08-06T07:30:39;1.07;;;0.70;;
18360;SDS011;9308;48.550;9.108;2023-08-06T07:33:25;1.00;;;0.87;;
18360;SDS011;9308;48.550;9.108;2023-08-06T07:36:11;2.63;;;0.70;;
18360;SDS011;9308;48.550;9.108;2023-08-06T07:38:58;2.47;;;0.80;;
18360;SDS011;9308;48.550;9.108;2023-08-06T07:41:43;0.70;;;0.70;;
18360;SDS011;9308;48.550;9.108;2023-08-06T07:44:30;0.90;;;0.77;;
18360;SDS011;9308;48.550;9.108;2023-08-06T07:47:16;0.70;;;0.70;;
18360;SDS011;9308;48.550;9.108;2023-08-06T07:50:01;0.90;;;0.90;;
18360;SDS011;9308;48.550;9.108;2023-08-06T07:52:46;2.10;;;0.70;;
18360;SDS011;9308;48.550;9.108;2023-08-06T07:55:31;0.70;;;0.70;;
18360;SDS011;9308;48.550;9.108;2023-08-06T07:58:17;0.60;;;0.60;;
18360;SDS011;9308;48.550;9.108;2023-08-06T08:01:03;0.60;;;0.60;;
18360;SDS011;9308;48.550;9.108;2023-08-06T08:03:48;0.60;;;0.60;;
18360;SDS011;9308;48.550;9.108;2023-08-06T08:06:33;0.50;;;0.50;;
18360;SDS011;9308;48.550;9.108;2023-08-06T08:09:19;0.50;;;0.50;;
18360;SDS011;9308;48.550;9.108;2023-08-06T08:12:04;0.50;;;0.50;;
18360;SDS011;9308;48.550;9.108;2023-08-06T08:14:50;0.60;;;0.60;;
18360;SDS011;9308;48.550;9.108;2023-08-06T08:17:35;0.60;;;0.60;;
18360;SDS011;9308;48.550;9.108;2023-08-06T08:20:20;0.50;;;0.50;;
18360;SDS011;9308;48.550;9.108;2023-08-06T08:23:06;0.57;;;0.57;;
18360;SDS011;9308;48.550;9.108;2023-08-06T08:25:51;0.50;;;0.50;;
18360;SDS011;9308;48.550;9.108;2023-08-06T08:28:36;0.93;;;0.50;;
18360;SDS011;9308;48.550;9.108;2023-08-06T08:31:22;2.80;;;0.50;;
18360;SDS011;9308;48.550;9.108;2023-08-06T08:34:07;0.50;;;0.50;;
18360;SDS011;9308;48.550;9.108;2023-08-06T08:36:52;1.13;;;0.53;;
18360;SDS011;9308;48.550;9.108;2023-08-06T08:39:37;0.60;;;0.60;;
18360;SDS011;9308;48.550;9.108;2023-08-06T08:42:23;0.60;;;0.60;;
18360;SDS011;9308;48.550;9.108;2023-08-06T08:45:12;0.70;;;0.70;;
18360;SDS011;9308;48.550;9.108;2023-08-06T08:47:58;0.87;;;0.80;;
18360;SDS011;9308;48.550;9.108;2023-08-06T08:50:45;0.80;;;0.80;;
18360;SDS011;9308;48.550;9.108;2023-08-06T08:53:31;0.50;;;0.50;;
18360;SDS011;9308;48.550;9.108;2023-08-06T08:56:17;0.60;;;0.60;;
18360;SDS011;9308;48.550;9.108;2023-08-06T08:59:03;0.60;;;0.60;;
18360;SDS011;9308;48.550;9.108;2023-08-06T09:01:48;1.47;;;0.60;;
18360;SDS011;9308;48.550;9.108;2023-08-06T09:04:36;1.10;;;0.70;;
18360;SDS011;9308;48.550;9.108;2023-08-06T09:07:22;0.60;;;0.60;;
18360;SDS011;9308;48.550;9.108;2023-08-06T09:10:10;0.57;;;0.57;;
18360;SDS011;9308;48.550;9.108;2023-08-06T09:12:58;0.57;;;0.57;;
18360;SDS011;9308;48.550;9.108;2023-08-06T09:15:46;0.60;;;0.60;;
18360;SDS011;9308;48.550;9.108;2023-08-06T09:18:31;0.50;;;0.50;;
18360;SDS011;9308;48.550;9.108;2023-08-06T09:21:16;1.17;;;0.50;;
18360;SDS011;9308;48.550;9.108;2023-08-06T09:24:06;0.57;;;0.57;;
18360;SDS011;9308;48.550;9.108;2023-08-06T09:26:58;0.50;;;0.50;;
18360;SDS011;9308;48.550;9.108;2023-08-06T09:29:48;1.53;;;0.70;;
18360;SDS011;9308;48.550;9.108;2023-08-06T09:32:44;0.40;;;0.40;;
18360;SDS011;9308;48.550;9.108;2023-08-06T09:35:31;2.40;;;0.50;;
18360;SDS011;9308;48.550;9.108;2023-08-06T09:38:17;0.50;;;0.50;;
18360;SDS011;9308;48.550;9.108;2023-08-06T09:41:02;0.40;;;0.40;;
18360;SDS011;9308;48.550;9.108;2023-08-06T09:43:47;1.00;;;0.70;;
18360;SDS011;9308;48.550;9.108;2023-08-06T09:46:33;0.50;;;0.50;;
18360;SDS011;9308;48.550;9.108;2023-08-06T09:49:18;0.53;;;0.53;;
18360;SDS011;9308;48.550;9.108;2023-08-06T09:52:05;0.60;;;0.53;;
18360;SDS011;9308;48.550;9.108;2023-08-06T09:54:51;2.53;;;0.80;;
18360;SDS011;9308;48.550;9.108;2023-08-06T09:57:37;0.60;;;0.60;;
18360;SDS011;9308;48.550;9.108;2023-08-06T10:00:23;0.50;;;0.50;;
18360;SDS011;9308;48.550;9.108;2023-08-06T10:03:09;0.70;;;0.57;;
18360;SDS011;9308;48.550;9.108;2023-08-06T10:05:57;0.87;;;0.63;;
18360;SDS011;9308;48.550;9.108;2023-08-06T10:08:42;1.43;;;0.60;;
18360;SDS011;9308;48.550;9.108;2023-08-06T10:11:28;0.60;;;0.60;;
18360;SDS011;9308;48.550;9.108;2023-08-06T10:14:16;0.60;;;0.60;;
18360;SDS011;9308;48.550;9.108;2023-08-06T10:17:04;0.57;;;0.57;;
18360;SDS011;9308;48.550;9.108;2023-08-06T10:19:50;0.50;;;0.50;;
18360;SDS011;9308;48.550;9.108;2023-08-06T10:22:36;1.53;;;0.70;;
18360;SDS011;9308;48.550;9.108;2023-08-06T10:25:21;0.60;;;0.60;;
18360;SDS011;9308;48.550;9.108;2023-08-06T10:28:09;0.50;;;0.50;;
18360;SDS011;9308;48.550;9.108;2023-08-06T10:30:56;0.50;;;0.50;;
18360;SDS011;9308;48.550;9.108;2023-08-06T10:33:42;0.80;;;0.60;;
18360;SDS011;9308;48.550;9.108;2023-08-06T10:36:31;0.50;;;0.50;;
18360;SDS011;9308;48.550;9.108;2023-08-06T10:39:18;0.40;;;0.40;;
18360;SDS011;9308;48.550;9.108;2023-08-06T10:42:03;0.60;;;0.60;;
18360;SDS011;9308;48.550;9.108;2023-08-06T10:48:05;0.73;;;0.50;;
18360;SDS011;9308;48.550;9.108;2023-08-06T10:50:50;0.60;;;0.60;;
18360;SDS011;9308;48.550;9.108;2023-08-06T10:53:36;0.50;;;0.50;;
18360;SDS011;9308;48.550;9.108;2023-08-06T10:56:22;0.70;;;0.70;;
18360;SDS011;9308;48.550;9.108;2023-08-06T10:59:11;0.50;;;0.50;;
18360;SDS011;9308;48.550;9.108;2023-08-06T11:02:00;0.63;;;0.57;;
18360;SDS011;9308;48.550;9.108;2023-08-06T11:04:46;0.97;;;0.50;;
18360;SDS011;9308;48.550;9.108;2023-08-06T11:07:31;1.00;;;1.00;;
18360;SDS011;9308;48.550;9.108;2023-08-06T11:10:16;0.60;;;0.60;;
18360;SDS011;9308;48.550;9.108;2023-08-06T11:13:02;1.37;;;0.80;;
18360;SDS011;9308;48.550;9.108;2023-08-06T11:15:48;0.90;;;0.87;;
18360;SDS011;9308;48.550;9.108;2023-08-06T11:18:33;0.60;;;0.60;;
18360;SDS011;9308;48.550;9.108;2023-08-06T11:21:19;1.43;;;0.60;;
18360;SDS011;9308;48.550;9.108;2023-08-06T11:24:05;0.70;;;0.70;;
18360;SDS011;9308;48.550;9.108;2023-08-06T11:26:51;0.60;;;0.60;;
18360;SDS011;9308;48.550;9.108;2023-08-06T11:29:37;0.80;;;0.70;;
18360;SDS011;9308;48.550;9.108;2023-08-06T11:32:23;0.67;;;0.60;;
18360;SDS011;9308;48.550;9.108;2023-08-06T11:35:11;0.60;;;0.60;;
18360;SDS011;9308;48.550;9.108;2023-08-06T11:37:56;0.50;;;0.50;;
18360;SDS011;9308;48.550;9.108;2023-08-06T11:40:43;0.87;;;0.50;;
18360;SDS011;9308;48.550;9.108;2023-08-06T11:43:32;0.50;;;0.50;;
18360;SDS011;9308;48.550;9.108;2023-08-06T11:46:18;0.47;;;0.47;;
18360;SDS011;9308;48.550;9.108;2023-08-06T11:49:03;0.50;;;0.47;;
18360;SDS011;9308;48.550;9.108;2023-08-06T11:51:49;0.70;;;0.63;;
18360;SDS011;9308;48.550;9.108;2023-08-06T11:54:34;0.60;;;0.60;;
18360;SDS011;9308;48.550;9.108;2023-08-06T11:57:19;0.70;;;0.60;;
18360;SDS011;9308;48.550;9.108;2023-08-06T12:00:05;0.70;;;0.60;;
18360;SDS011;9308;48.550;9.108;2023-08-06T12:02:53;0.80;;;0.70;;
18360;SDS011;9308;48.550;9.108;2023-08-06T12:05:39;1.07;;;0.70;;
18360;SDS011;9308;48.550;9.108;2023-08-06T12:08:26;0.60;;;0.60;;
18360;SDS011;9308;48.550;9.108;2023-08-06T12:11:12;0.70;;;0.50;;
18360;SDS011;9308;48.550;9.108;2023-08-06T12:13:57;0.67;;;0.67;;
18360;SDS011;9308;48.550;9.108;2023-08-06T12:16:44;0.87;;;0.83;;
18360;SDS011;9308;48.550;9.108;2023-08-06T12:19:29;0.90;;;0.90;;
18360;SDS011;9308;48.550;9.108;2023-08-06T12:22:15;0.83;;;0.80;;
18360;SDS011;9308;48.550;9.108;2023-08-06T12:25:01;0.97;;;0.93;;
18360;SDS011;9308;48.550;9.108;2023-08-06T12:27:48;2.17;;;1.07;;
18360;SDS011;9308;48.550;9.108;2023-08-06T12:30:34;1.90;;;1.33;;
18360;SDS011;9308;48.550;9.108;2023-08-06T12:33:19;1.50;;;1.27;;
18360;SDS011;9308;48.550;9.108;2023-08-06T12:36:04;1.70;;;1.60;;
18360;SDS011;9308;48.550;9.108;2023-08-06T12:38:49;1.20;;;1.10;;
18360;SDS011;9308;48.550;9.108;2023-08-06T12:41:35;2.73;;;1.40;;
18360;SDS011;9308;48.550;9.108;2023-08-06T12:44:20;1.03;;;1.03;;
18360;SDS011;9308;48.550;9.108;2023-08-06T12:47:06;1.40;;;1.30;;
18360;SDS011;9308;48.550;9.108;2023-08-06T12:49:52;1.20;;;1.10;;
18360;SDS011;9308;48.550;9.108;2023-08-06T12:52:37;1.30;;;1.20;;
18360;SDS011;9308;48.550;9.108;2023-08-06T12:55:23;1.30;;;1.20;;
18360;SDS011;9308;48.550;9.108;2023-08-06T12:58:08;1.30;;;1.20;;
18360;SDS011;9308;48.550;9.108;2023-08-06T13:00:53;2.47;;;1.63;;
18360;SDS011;9308;48.550;9.108;2023-08-06T13:03:39;1.07;;;1.03;;
18360;SDS011;9308;48.550;9.108;2023-08-06T13:06:25;1.10;;;1.10;;
18360;SDS011;9308;48.550;9.108;2023-08-06T13:09:10;0.97;;;0.97;;
18360;SDS011;9308;48.550;9.108;2023-08-06T13:11:55;1.20;;;1.10;;
18360;SDS011;9308;48.550;9.108;2023-08-06T13:14:41;0.90;;;0.87;;
18360;SDS011;9308;48.550;9.108;2023-08-06T13:17:26;1.33;;;1.10;;
18360;SDS011;9308;48.550;9.108;2023-08-06T13:20:12;1.07;;;1.07;;
18360;SDS011;9308;48.550;9.108;2023-08-06T13:22:58;1.03;;;1.03;;
18360;SDS011;9308;48.550;9.108;2023-08-06T13:25:43;0.80;;;0.80;;
18360;SDS011;9308;48.550;9.108;2023-08-06T13:28:29;0.93;;;0.90;;
18360;SDS011;9308;48.550;9.108;2023-08-06T13:31:15;1.60;;;1.50;;
18360;SDS011;9308;48.550;9.108;2023-08-06T13:34:00;1.77;;;1.10;;
18360;SDS011;9308;48.550;9.108;2023-08-06T13:36:45;0.80;;;0.80;;
18360;SDS011;9308;48.550;9.108;2023-08-06T13:39:31;1.00;;;1.00;;
18360;SDS011;9308;48.550;9.108;2023-08-06T13:42:16;0.80;;;0.80;;
18360;SDS011;9308;48.550;9.108;2023-08-06T13:45:01;0.80;;;0.80;;
18360;SDS011;9308;48.550;9.108;2023-08-06T13:47:48;0.93;;;0.93;;
18360;SDS011;9308;48.550;9.108;2023-08-06T13:50:34;0.90;;;0.90;;
18360;SDS011;9308;48.550;9.108;2023-08-06T13:53:19;1.00;;;1.00;;
18360;SDS011;9308;48.550;9.108;2023-08-06T13:56:05;0.93;;;0.93;;
18360;SDS011;9308;48.550;9.108;2023-08-06T13:58:51;0.87;;;0.70;;
18360;SDS011;9308;48.550;9.108;2023-08-06T14:01:36;1.00;;;1.00;;
18360;SDS011;9308;48.550;9.108;2023-08-06T14:04:21;0.93;;;0.80;;
18360;SDS011;9308;48.550;9.108;2023-08-06T14:07:07;1.50;;;0.93;;
18360;SDS011;9308;48.550;9.108;2023-08-06T14:09:52;0.80;;;0.80;;
18360;SDS011;9308;48.550;9.108;2023-08-06T14:12:37;0.80;;;0.80;;
18360;SDS011;9308;48.550;9.108;2023-08-06T14:15:22;0.70;;;0.70;;
18360;SDS011;9308;48.550;9.108;2023-08-06T14:18:08;0.83;;;0.80;;
18360;SDS011;9308;48.550;9.108;2023-08-06T14:20:53;0.83;;;0.80;;
18360;SDS011;9308;48.550;9.108;2023-08-06T14:23:38;1.03;;;0.63;;
18360;SDS011;9308;48.550;9.108;2023-08-06T14:26:26;1.00;;;0.90;;
18360;SDS011;9308;48.550;9.108;2023-08-06T14:29:11;1.33;;;0.90;;
18360;SDS011;9308;48.550;9.108;2023-08-06T14:31:58;1.10;;;1.00;;
18360;SDS011;9308;48.550;9.108;2023-08-06T14:34:44;1.27;;;1.10;;
18360;SDS011;9308;48.550;9.108;2023-08-06T14:37:29;0.77;;;0.77;;
18360;SDS011;9308;48.550;9.108;2023-08-06T14:40:14;1.40;;;1.30;;
18360;SDS011;9308;48.550;9.108;2023-08-06T14:43:00;0.80;;;0.80;;
18360;SDS011;9308;48.550;9.108;2023-08-06T14:45:46;2.03;;;1.70;;
18360;SDS011;9308;48.550;9.108;2023-08-06T14:48:31;0.80;;;0.80;;
18360;SDS011;9308;48.550;9.108;2023-08-06T14:51:17;0.83;;;0.83;;
18360;SDS011;9308;48.550;9.108;2023-08-06T14:54:04;0.80;;;0.80;;
18360;SDS011;9308;48.550;9.108;2023-08-06T14:56:49;1.43;;;1.00;;
18360;SDS011;9308;48.550;9.108;2023-08-06T14:59:34;0.87;;;0.87;;
18360;SDS011;9308;48.550;9.108;2023-08-06T15:02:20;1.07;;;0.97;;
18360;SDS011;9308;48.550;9.108;2023-08-06T15:05:05;0.80;;;0.80;;
18360;SDS011;9308;48.550;9.108;2023-08-06T15:07:51;0.80;;;0.80;;
18360;SDS011;9308;48.550;9.108;2023-08-06T15:10:38;0.70;;;0.70;;
18360;SDS011;9308;48.550;9.108;2023-08-06T15:13:23;0.97;;;0.90;;
18360;SDS011;9308;48.550;9.108;2023-08-06T15:16:08;0.70;;;0.70;;
18360;SDS011;9308;48.550;9.108;2023-08-06T15:18:53;0.80;;;0.80;;
18360;SDS011;9308;48.550;9.108;2023-08-06T15:21:39;0.70;;;0.70;;
18360;SDS011;9308;48.550;9.108;2023-08-06T15:24:24;0.83;;;0.83;;
18360;SDS011;9308;48.550;9.108;2023-08-06T15:27:09;1.40;;;1.30;;
18360;SDS011;9308;48.550;9.108;2023-08-06T15:29:54;0.93;;;0.90;;
18360;SDS011;9308;48.550;9.108;2023-08-06T15:32:40;1.00;;;1.00;;
18360;SDS011;9308;48.550;9.108;2023-08-06T15:35:29;1.30;;;1.20;;
18360;SDS011;9308;48.550;9.108;2023-08-06T15:38:14;1.10;;;1.00;;
18360;SDS011;9308;48.550;9.108;2023-08-06T15:41:00;1.00;;;1.00;;
18360;SDS011;9308;48.550;9.108;2023-08-06T15:43:45;1.30;;;1.20;;
18360;SDS011;9308;48.550;9.108;2023-08-06T15:46:30;0.90;;;0.80;;
18360;SDS011;9308;48.550;9.108;2023-08-06T15:49:16;1.00;;;1.00;;
18360;SDS011;9308;48.550;9.108;2023-08-06T15:52:01;0.90;;;0.80;;
18360;SDS011;9308;48.550;9.108;2023-08-06T15:54:46;0.80;;;0.80;;
18360;SDS011;9308;48.550;9.108;2023-08-06T15:57:32;0.97;;;0.80;;
18360;SDS011;9308;48.550;9.108;2023-08-06T16:00:18;1.40;;;1.30;;
18360;SDS011;9308;48.550;9.108;2023-08-06T16:03:03;0.70;;;0.70;;
18360;SDS011;9308;48.550;9.108;2023-08-06T16:05:49;0.80;;;0.80;;
18360;SDS011;9308;48.550;9.108;2023-08-06T16:08:34;3.43;;;1.10;;
18360;SDS011;9308;48.550;9.108;2023-08-06T16:11:20;0.80;;;0.80;;
18360;SDS011;9308;48.550;9.108;2023-08-06T16:14:06;0.70;;;0.70;;
18360;SDS011;9308;48.550;9.108;2023-08-06T16:16:51;0.90;;;0.90;;
18360;SDS011;9308;48.550;9.108;2023-08-06T16:19:36;0.80;;;0.80;;
18360;SDS011;9308;48.550;9.108;2023-08-06T16:22:22;2.33;;;1.23;;
18360;SDS011;9308;48.550;9.108;2023-08-06T16:25:08;1.23;;;1.10;;
18360;SDS011;9308;48.550;9.108;2023-08-06T16:27:56;1.00;;;1.00;;
18360;SDS011;9308;48.550;9.108;2023-08-06T16:30:45;1.00;;;1.00;;
18360;SDS011;9308;48.550;9.108;2023-08-06T16:33:31;1.20;;;1.10;;
18360;SDS011;9308;48.550;9.108;2023-08-06T16:36:16;1.00;;;1.00;;
18360;SDS011;9308;48.550;9.108;2023-08-06T16:39:02;1.47;;;1.17;;
18360;SDS011;9308;48.550;9.108;2023-08-06T16:41:47;1.20;;;1.10;;
18360;SDS011;9308;48.550;9.108;2023-08-06T16:44:33;1.80;;;1.03;;
18360;SDS011;9308;48.550;9.108;2023-08-06T16:47:18;1.27;;;1.17;;
18360;SDS011;9308;48.550;9.108;2023-08-06T16:50:03;0.97;;;0.97;;
18360;SDS011;9308;48.550;9.108;2023-08-06T16:52:51;0.80;;;0.80;;
18360;SDS011;9308;48.550;9.108;2023-08-06T16:55:36;1.17;;;1.17;;
18360;SDS011;9308;48.550;9.108;2023-08-06T16:58:22;1.20;;;1.10;;
18360;SDS011;9308;48.550;9.108;2023-08-06T17:01:07;1.13;;;1.10;;
18360;SDS011;9308;48.550;9.108;2023-08-06T17:03:52;3.13;;;1.10;;